Time;durP1;ratioP1;P1;durP2;ratioP2;P2;SDS_P1;SDS_P2;PMS_P1;PMS_P2;Temp;Humidity;BMP_temperature;BMP_pressure;BME280_temperature;BME280_humidity;BME280_pressure;Samples;Min_cycle;Max_cycle;Signal;HPM_P1;HPM_P2
2023/12/16 00:02:22;;;;;;;7.50;5.40;;;;;;;-0.47;74.19;100649.51;107398;1256;67419;-41
2023/12/16 00:04:49;;;;;;;7.40;5.30;;;;;;;-0.46;74.28;100650.43;107411;1254;72674;-41
2023/12/16 00:07:17;;;;;;;8.50;5.30;;;;;;;-0.47;74.15;100649.40;107412;1254;60532;-40
2023/12/16 00:09:45;;;;;;;10.00;5.80;;;;;;;-0.56;74.31;100643.80;107647;1254;60372;-40
2023/12/16 00:12:13;;;;;;;7.80;5.50;;;;;;;-0.53;74.73;100661.61;107628;1254;73903;-41
2023/12/16 00:14:41;;;;;;;7.70;5.40;;;;;;;-0.54;74.71;100664.81;107619;1253;67544;-40
2023/12/16 00:17:08;;;;;;;7.70;6.00;;;;;;;-0.51;74.74;100659.61;107594;1254;71430;-40
2023/12/16 00:19:36;;;;;;;11.60;5.30;;;;;;;-0.46;74.51;100661.71;107697;1253;60482;-40
2023/12/16 00:22:04;;;;;;;8.90;5.40;;;;;;;-0.47;74.69;100662.19;107681;1254;59263;-40
2023/12/16 00:24:32;;;;;;;9.10;6.00;;;;;;;-0.50;74.90;100657.86;107691;1253;73812;-40
2023/12/16 00:26:59;;;;;;;8.30;5.70;;;;;;;-0.52;74.95;100653.95;107698;1254;67624;-40
2023/12/16 00:29:27;;;;;;;8.30;6.10;;;;;;;-0.53;75.25;100654.90;107671;1254;72655;-40
2023/12/16 00:31:54;;;;;;;8.00;5.30;;;;;;;-0.63;75.13;100640.54;107632;1253;60479;-40
2023/12/16 00:34:22;;;;;;;7.60;5.20;;;;;;;-0.52;75.33;100647.55;107658;1252;60319;-40
2023/12/16 00:36:50;;;;;;;9.30;6.20;;;;;;;-0.47;75.22;100649.77;107688;1254;73861;-41
2023/12/16 00:39:17;;;;;;;9.10;5.70;;;;;;;-0.49;75.29;100652.91;107682;1253;67924;-41
2023/12/16 00:41:45;;;;;;;7.20;5.60;;;;;;;-0.53;75.43;100662.09;107698;1254;72690;-40
2023/12/16 00:44:13;;;;;;;7.70;5.50;;;;;;;-0.56;75.38;100661.54;107670;1254;60289;-41
2023/12/16 00:46:40;;;;;;;8.90;5.50;;;;;;;-0.58;75.72;100658.54;107679;1254;60495;-41
2023/12/16 00:49:08;;;;;;;6.90;4.90;;;;;;;-0.56;75.61;100661.16;107668;1254;73953;-40
2023/12/16 00:51:36;;;;;;;8.40;5.90;;;;;;;-0.51;75.73;100661.73;107688;1254;67699;-40
2023/12/16 00:54:03;;;;;;;9.10;5.90;;;;;;;-0.52;75.73;100662.36;107497;1258;71368;-40
2023/12/16 00:56:31;;;;;;;9.90;6.20;;;;;;;-0.54;76.00;100659.21;107661;1253;60394;-40
2023/12/16 00:58:58;;;;;;;8.90;6.00;;;;;;;-0.54;75.92;100647.34;107529;1254;60555;-40
2023/12/16 01:01:26;;;;;;;9.20;6.00;;;;;;;-0.56;75.98;100650.84;107471;1254;72757;-40
2023/12/16 01:03:53;;;;;;;8.60;5.80;;;;;;;-0.58;76.01;100659.61;107696;1253;67565;-40
2023/12/16 01:06:21;;;;;;;9.90;6.30;;;;;;;-0.54;76.11;100657.92;107664;1254;72664;-40
2023/12/16 01:08:49;;;;;;;10.20;5.90;;;;;;;-0.52;76.09;100655.33;107670;1252;60465;-40
2023/12/16 01:11:16;;;;;;;10.00;6.50;;;;;;;-0.56;76.32;100656.16;107669;1254;60370;-40
2023/12/16 01:13:44;;;;;;;9.20;6.60;;;;;;;-0.58;76.43;100657.20;107493;1254;73810;-40
2023/12/16 01:16:11;;;;;;;10.80;6.40;;;;;;;-0.58;76.81;100652.63;107470;1254;66305;-41
2023/12/16 01:18:39;;;;;;;11.30;7.10;;;;;;;-0.61;76.71;100646.16;107627;1254;72673;-40
2023/12/16 01:21:08;;;;;;;10.20;6.50;;;;;;;-0.56;76.69;100647.42;107428;1257;60783;-40
2023/12/16 01:23:36;;;;;;;9.40;6.80;;;;;;;-0.49;76.57;100654.61;107516;1255;60018;-40
2023/12/16 01:26:04;;;;;;;10.70;7.10;;;;;;;-0.48;76.42;100653.39;107394;1256;73850;-40
2023/12/16 01:28:32;;;;;;;10.30;6.90;;;;;;;-0.50;76.66;100656.27;107236;1256;66333;-40
2023/12/16 01:31:00;;;;;;;12.10;7.80;;;;;;;-0.53;76.67;100654.63;107198;1260;71392;-41
2023/12/16 01:33:28;;;;;;;10.80;7.30;;;;;;;-0.56;76.75;100660.73;107410;1255;60177;-41
2023/12/16 01:35:56;;;;;;;11.00;7.60;;;;;;;-0.58;76.87;100662.36;107431;1255;60377;-40
2023/12/16 01:38:24;;;;;;;10.90;7.80;;;;;;;-0.53;76.84;100662.20;107437;1256;73980;-40
2023/12/16 01:40:51;;;;;;;9.80;7.50;;;;;;;-0.47;76.70;100662.52;107396;1256;67891;-40
2023/12/16 01:43:19;;;;;;;12.90;8.70;;;;;;;-0.44;76.68;100661.64;107397;1256;72810;-40
2023/12/16 01:45:46;;;;;;;15.70;10.00;;;;;;;-0.41;76.92;100663.73;107412;1254;60290;-40
2023/12/16 01:48:14;;;;;;;13.10;9.70;;;;;;;-0.42;76.88;100662.55;107407;1256;60384;-41
2023/12/16 01:50:42;;;;;;;16.10;10.70;;;;;;;-0.45;76.99;100657.25;107257;1256;73842;-40
2023/12/16 01:53:09;;;;;;;16.60;10.50;;;;;;;-0.48;77.04;100657.17;107228;1256;68391;-40
2023/12/16 01:55:37;;;;;;;15.80;10.70;;;;;;;-0.43;77.32;100658.98;107429;1254;72718;-41
2023/12/16 01:58:05;;;;;;;15.40;10.40;;;;;;;-0.33;76.93;100659.09;107417;1254;60562;-40
2023/12/16 02:00:32;;;;;;;16.80;11.70;;;;;;;-0.39;77.15;100651.48;107477;1255;60023;-40
2023/12/16 02:03:00;;;;;;;17.50;11.10;;;;;;;-0.33;77.38;100663.46;107427;1256;73359;-40
2023/12/16 02:05:28;;;;;;;16.20;11.20;;;;;;;-0.34;77.36;100664.70;107495;1254;67899;-40
2023/12/16 02:07:55;;;;;;;18.30;11.80;;;;;;;-0.36;77.39;100665.05;107428;1258;72667;-40
2023/12/16 02:10:23;;;;;;;18.60;11.90;;;;;;;-0.39;77.31;100664.17;107454;1255;60865;-40
2023/12/16 02:12:50;;;;;;;17.80;11.90;;;;;;;-0.35;77.71;100672.30;107413;1256;60077;-39
2023/12/16 02:15:18;;;;;;;16.60;11.90;;;;;;;-0.29;77.53;100674.80;107246;1255;73858;-39
2023/12/16 02:17:45;;;;;;;19.20;12.70;;;;;;;-0.30;77.62;100669.52;107239;1255;65915;-38
2023/12/16 02:20:14;;;;;;;19.90;13.50;;;;;;;-0.32;77.70;100667.89;107400;1255;72672;-38
2023/12/16 02:22:44;;;;;;;19.40;13.10;;;;;;;-0.37;77.69;100669.73;107410;1254;60177;-38
2023/12/16 02:25:12;;;;;;;19.30;13.20;;;;;;;-0.39;78.13;100668.77;106442;1255;1002780;-39
2023/12/16 02:27:44;;;;;;;21.60;14.40;;;;;;;-0.40;78.05;100668.27;107070;1256;73904;-39
2023/12/16 02:30:11;;;;;;;21.80;14.00;;;;;;;-0.37;77.80;100670.52;107473;1256;66330;-39
2023/12/16 02:32:41;;;;;;;21.90;14.40;;;;;;;-0.36;78.16;100670.38;107467;1255;72692;-39
2023/12/16 02:35:09;;;;;;;21.80;14.70;;;;;;;-0.40;78.52;100669.77;107440;1258;60584;-39
2023/12/16 02:37:36;;;;;;;22.00;15.50;;;;;;;-0.45;78.51;100671.42;107420;1255;60446;-39
2023/12/16 02:40:05;;;;;;;23.80;15.20;;;;;;;-0.50;78.95;100671.51;107245;1260;73843;-39
2023/12/16 02:42:33;;;;;;;20.20;13.80;;;;;;;-0.47;78.86;100669.29;107433;1255;66602;-39
2023/12/16 02:45:00;;;;;;;21.60;15.30;;;;;;;-0.39;78.71;100674.29;107396;1255;72647;-39
2023/12/16 02:47:28;;;;;;;23.50;16.20;;;;;;;-0.39;78.97;100686.44;107223;1255;60208;-40
2023/12/16 02:49:56;;;;;;;24.30;16.80;;;;;;;-0.43;79.01;100682.63;107240;1255;60408;-39
2023/12/16 02:52:24;;;;;;;26.80;17.60;;;;;;;-0.46;79.37;100684.69;107396;1255;74005;-39
2023/12/16 02:54:51;;;;;;;27.20;17.10;;;;;;;-0.48;79.44;100684.34;107404;1258;67689;-39
2023/12/16 02:57:19;;;;;;;22.90;16.20;;;;;;;-0.44;79.37;100688.70;107418;1254;71390;-39
2023/12/16 02:59:46;;;;;;;24.10;16.80;;;;;;;-0.37;79.61;100690.24;107402;1253;60448;-39
2023/12/16 03:02:14;;;;;;;22.80;17.20;;;;;;;-0.37;79.59;100689.60;107374;1254;60339;-39
2023/12/16 03:04:41;;;;;;;24.80;18.00;;;;;;;-0.40;79.86;100691.02;107338;1254;71756;-40
2023/12/16 03:07:09;;;;;;;26.10;17.70;;;;;;;-0.44;80.01;100692.58;107344;1254;67579;-40
2023/12/16 03:09:37;;;;;;;25.60;16.70;;;;;;;-0.46;80.29;100697.59;107347;1254;72990;-40
2023/12/16 03:12:06;;;;;;;24.20;17.20;;;;;;;-0.40;80.17;100697.52;107312;1260;60358;-40
2023/12/16 03:14:37;;;;;;;26.50;18.30;;;;;;;-0.36;80.19;100706.35;107319;1254;60534;-40
2023/12/16 03:17:05;;;;;;;26.70;18.60;;;;;;;-0.36;80.52;100703.46;107335;1259;73840;-40
2023/12/16 03:19:32;;;;;;;29.90;18.30;;;;;;;-0.39;80.59;100710.69;107406;1254;67559;-39
2023/12/16 03:22:00;;;;;;;28.40;18.30;;;;;;;-0.39;80.77;100718.46;107398;1253;72669;-40
2023/12/16 03:24:28;;;;;;;23.90;16.70;;;;;;;-0.33;80.80;100718.25;107450;1254;60873;-39
2023/12/16 03:26:55;;;;;;;27.00;17.20;;;;;;;-0.28;80.89;100716.42;107476;1254;60505;-40
2023/12/16 03:29:23;;;;;;;25.60;18.30;;;;;;;-0.30;80.78;100711.41;107409;1254;73883;-39
2023/12/16 03:31:50;;;;;;;27.40;17.70;;;;;;;-0.33;81.05;100710.09;107463;1254;66617;-40
2023/12/16 03:34:18;;;;;;;27.70;17.50;;;;;;;-0.34;81.27;100707.48;107348;1254;72714;-40
2023/12/16 03:36:46;;;;;;;25.80;17.30;;;;;;;-0.28;81.15;100701.61;107468;1254;60859;-40
2023/12/16 03:39:13;;;;;;;25.30;17.40;;;;;;;-0.27;80.99;100687.19;107443;1254;60464;-40
2023/12/16 03:41:41;;;;;;;24.50;17.90;;;;;;;-0.20;81.12;100700.77;107411;1254;73034;-40
2023/12/16 03:44:08;;;;;;;25.40;18.20;;;;;;;-0.19;81.21;100704.02;107323;1260;67905;-39
2023/12/16 03:46:36;;;;;;;26.90;17.60;;;;;;;-0.18;81.16;100715.75;107439;1253;72632;-40
2023/12/16 03:49:03;;;;;;;27.50;17.70;;;;;;;-0.14;81.01;100723.26;107481;1253;60452;-40
2023/12/16 03:51:31;;;;;;;25.70;17.40;;;;;;;-0.06;80.84;100719.57;107338;1254;61208;-39
2023/12/16 03:53:58;;;;;;;26.70;17.60;;;;;;;-0.03;80.64;100727.97;107394;1254;72566;-39
2023/12/16 03:56:26;;;;;;;25.10;17.80;;;;;;;-0.10;80.79;100720.08;107444;1254;67890;-40
2023/12/16 03:58:53;;;;;;;27.30;17.50;;;;;;;-0.07;80.69;100734.77;107488;1253;71465;-40
2023/12/16 04:01:21;;;;;;;27.40;16.50;;;;;;;-0.06;80.64;100741.71;107355;1255;60422;-40
2023/12/16 04:03:48;;;;;;;25.40;16.50;;;;;;;0.01;80.72;100749.23;107428;1254;60412;-40
2023/12/16 04:06:16;;;;;;;25.10;16.80;;;;;;;0.07;80.36;100748.68;107457;1254;73847;-40
2023/12/16 04:08:44;;;;;;;22.30;16.90;;;;;;;0.05;80.36;100752.86;107355;1254;66751;-39
2023/12/16 04:11:12;;;;;;;28.40;18.40;;;;;;;-0.01;80.57;100750.02;107462;1254;72660;-40
2023/12/16 04:13:39;;;;;;;25.50;17.10;;;;;;;-0.05;80.34;100753.98;107361;1254;60433;-39
2023/12/16 04:16:07;;;;;;;25.50;16.90;;;;;;;-0.04;80.27;100754.04;107434;1254;59842;-39
2023/12/16 04:18:34;;;;;;;25.10;16.70;;;;;;;0.02;80.37;100752.85;107514;1254;73771;-39
2023/12/16 04:21:03;;;;;;;24.90;17.20;;;;;;;0.01;80.40;100754.11;107371;1254;66328;-39
2023/12/16 04:23:30;;;;;;;23.90;17.80;;;;;;;-0.02;80.45;100750.53;107330;1256;72690;-39
2023/12/16 04:25:58;;;;;;;25.10;16.90;;;;;;;-0.04;80.49;100748.80;107439;1253;60447;-39
2023/12/16 04:28:25;;;;;;;22.40;15.90;;;;;;;-0.04;80.49;100743.42;107257;1254;139419;-39
2023/12/16 04:33:07;;;;;;;29.40;17.10;;;;;;;0.05;80.38;100742.31;104345;1290;601092;-40
2023/12/16 04:35:35;;;;;;;24.10;16.90;;;;;;;0.01;80.37;100742.44;106613;1267;59200;-39
2023/12/16 04:38:02;;;;;;;25.20;16.80;;;;;;;-0.02;80.56;100734.54;106628;1269;60047;-40
2023/12/16 04:40:30;;;;;;;24.10;17.20;;;;;;;-0.04;80.52;100731.20;105136;1267;1003587;-39
2023/12/16 04:42:57;;;;;;;22.90;15.40;;;;;;;-0.02;80.40;100733.31;106657;1267;67589;-39
2023/12/16 04:45:25;;;;;;;21.80;15.80;;;;;;;0.02;80.19;100737.50;106798;1264;71375;-40
2023/12/16 04:47:52;;;;;;;23.90;16.30;;;;;;;0.04;80.26;100741.67;106878;1260;141088;-40
2023/12/16 04:50:21;;;;;;;24.20;16.60;;;;;;;0.02;80.32;100740.75;106991;1264;59256;-40
2023/12/16 04:52:48;;;;;;;28.30;17.70;;;;;;;-0.03;80.28;100736.98;107072;1261;70930;-40
2023/12/16 04:55:16;;;;;;;25.40;17.20;;;;;;;-0.07;80.38;100739.34;107068;1264;66247;-40
2023/12/16 04:57:43;;;;;;;24.80;17.00;;;;;;;-0.05;80.46;100731.10;107021;1261;72429;-40
2023/12/16 05:00:13;;;;;;;25.60;16.60;;;;;;;0.01;80.26;100732.97;107005;1261;59525;-39
2023/12/16 05:02:41;;;;;;;;;;;;;;;0.03;80.40;100732.05;107089;1260;59535;-39
2023/12/16 05:05:09;;;;;;;25.50;17.90;;;;;;;0.00;80.46;100739.19;107039;1260;72192;-39
2023/12/16 05:07:37;;;;;;;26.30;16.90;;;;;;;-0.05;80.58;100742.67;107066;1259;67606;-39
2023/12/16 05:10:10;;;;;;;27.00;18.00;;;;;;;-0.08;80.65;100740.94;107074;1261;72737;-39
2023/12/16 05:12:39;;;;;;;25.50;16.40;;;;;;;-0.05;80.66;100737.88;107023;1264;61189;-40
2023/12/16 05:15:08;;;;;;;24.90;15.70;;;;;;;0.00;80.38;100741.10;107064;1264;60014;-39
2023/12/16 05:17:36;;;;;;;23.90;15.60;;;;;;;0.01;80.52;100736.42;107089;1264;73057;-39
2023/12/16 05:20:05;;;;;;;22.70;15.70;;;;;;;-0.02;80.55;100735.86;107007;1260;67594;-39
2023/12/16 05:22:33;;;;;;;23.40;15.80;;;;;;;-0.07;80.52;100741.59;106960;1261;70578;-40
2023/12/16 05:25:02;;;;;;;20.30;13.90;;;;;;;-0.11;80.77;100743.48;107052;1260;59646;-40
2023/12/16 05:27:30;;;;;;;21.00;13.60;;;;;;;-0.06;80.48;100748.58;107007;1264;59625;-40
2023/12/16 05:29:58;;;;;;;21.60;15.60;;;;;;;0.00;80.38;100753.38;107141;1260;72359;-40
2023/12/16 05:32:26;;;;;;;23.80;15.50;;;;;;;-0.02;80.39;100752.72;107083;1266;67933;-39
2023/12/16 05:34:54;;;;;;;23.60;15.10;;;;;;;-0.06;80.47;100756.45;107012;1266;72800;-39
2023/12/16 05:37:22;;;;;;;23.10;14.70;;;;;;;-0.11;80.43;100762.14;107012;1261;59506;-39
2023/12/16 05:39:49;;;;;;;23.70;15.50;;;;;;;-0.12;80.54;100762.55;107022;1260;60046;-39
2023/12/16 05:42:17;;;;;;;22.40;15.40;;;;;;;-0.08;80.26;100763.02;107044;1261;73039;-40
2023/12/16 05:44:45;;;;;;;21.10;15.50;;;;;;;-0.06;80.15;100768.31;107052;1260;66434;-40
2023/12/16 05:47:12;;;;;;;23.90;14.90;;;;;;;-0.09;80.36;100768.92;107030;1264;72685;-40
2023/12/16 05:49:40;;;;;;;25.70;17.00;;;;;;;-0.12;80.61;100769.27;107052;1261;59621;-40
2023/12/16 05:52:08;;;;;;;24.20;16.00;;;;;;;-0.14;80.48;100771.27;107031;1266;59260;-40
2023/12/16 05:54:35;;;;;;;22.40;15.50;;;;;;;-0.10;80.36;100779.63;107038;1266;71766;-40
2023/12/16 05:57:03;;;;;;;22.70;15.20;;;;;;;-0.03;80.28;100782.94;106972;1260;66357;-40
2023/12/16 05:59:31;;;;;;;23.70;15.80;;;;;;;-0.04;80.06;100785.65;107074;1264;72694;-40
2023/12/16 06:01:58;;;;;;;23.70;15.80;;;;;;;-0.07;80.19;100795.28;107021;1261;59515;-40
2023/12/16 06:04:26;;;;;;;24.90;15.80;;;;;;;-0.18;80.30;100785.59;107027;1265;59599;-40
2023/12/16 06:06:53;;;;;;;23.80;15.60;;;;;;;-0.12;80.35;100802.10;107031;1261;72189;-40
2023/12/16 06:09:21;;;;;;;23.70;15.30;;;;;;;-0.08;80.27;100804.77;107041;1264;67576;-40
2023/12/16 06:11:49;;;;;;;24.60;15.60;;;;;;;-0.01;80.29;100807.33;106987;1261;71472;-40
2023/12/16 06:14:17;;;;;;;22.00;15.50;;;;;;;-0.01;80.07;100810.21;106989;1267;59716;-40
2023/12/16 06:16:44;;;;;;;23.10;16.10;;;;;;;-0.02;80.21;100816.91;107053;1266;60012;-40
2023/12/16 06:19:12;;;;;;;26.20;16.70;;;;;;;-0.05;80.34;100815.23;107019;1262;73064;-40
2023/12/16 06:21:40;;;;;;;22.80;15.60;;;;;;;-0.05;80.40;100816.83;107003;1264;67560;-40
2023/12/16 06:24:10;;;;;;;23.00;16.40;;;;;;;0.03;80.17;100818.82;106979;1261;71440;-40
2023/12/16 06:26:37;;;;;;;23.40;15.80;;;;;;;0.12;80.04;100824.77;107026;1264;59925;-40
2023/12/16 06:29:05;;;;;;;23.60;16.40;;;;;;;0.15;79.95;100819.55;106962;1266;59746;-40
2023/12/16 06:31:33;;;;;;;25.80;16.70;;;;;;;0.15;80.02;100815.28;106994;1261;73063;-40
2023/12/16 06:34:01;;;;;;;26.60;16.90;;;;;;;0.14;79.67;100811.60;107036;1260;67571;-40
2023/12/16 06:36:29;;;;;;;24.30;15.70;;;;;;;0.12;79.84;100820.02;107023;1260;72928;-40
2023/12/16 06:38:57;;;;;;;22.00;15.50;;;;;;;0.16;79.56;100823.40;107036;1266;61026;-40
2023/12/16 06:41:24;;;;;;;25.90;16.50;;;;;;;0.22;79.35;100826.02;107040;1260;59258;-40
2023/12/16 06:43:52;;;;;;;23.40;16.40;;;;;;;0.22;79.50;100822.77;107063;1260;73121;-40
2023/12/16 06:46:20;;;;;;;21.90;15.20;;;;;;;0.20;79.59;100822.89;107074;1264;66797;-40
2023/12/16 06:48:47;;;;;;;27.30;17.50;;;;;;;0.18;79.39;100830.68;107047;1260;72710;-40
2023/12/16 06:51:15;;;;;;;28.90;16.90;;;;;;;0.15;79.54;100831.23;107073;1262;60846;-40
2023/12/16 06:53:43;;;;;;;24.90;16.30;;;;;;;0.18;79.57;100826.57;107005;1261;59842;-40
2023/12/16 06:56:11;;;;;;;25.50;17.30;;;;;;;0.24;79.48;100822.45;107009;1261;73500;-40
2023/12/16 06:58:40;;;;;;;27.10;17.90;;;;;;;0.24;79.64;100823.20;107031;1260;67660;-40
2023/12/16 07:01:11;;;;;;;23.80;16.20;;;;;;;0.21;79.75;100824.73;107073;1264;71682;-40
2023/12/16 07:03:39;;;;;;;28.20;16.80;;;;;;;0.19;80.01;100825.73;107045;1261;59641;-40
2023/12/16 07:06:09;;;;;;;27.40;16.70;;;;;;;0.19;79.94;100829.45;107021;1261;59497;-40
2023/12/16 07:08:37;;;;;;;22.00;13.60;;;;;;;0.26;79.75;100825.61;107062;1261;73083;-40
2023/12/16 07:11:04;;;;;;;25.90;17.30;;;;;;;0.33;79.72;100830.31;106992;1260;67577;-40
2023/12/16 07:13:32;;;;;;;28.30;18.70;;;;;;;0.32;79.43;100837.40;107005;1260;71364;-40
2023/12/16 07:16:03;;;;;;;29.10;17.80;;;;;;;0.30;79.56;100834.96;107016;1260;59824;-40
2023/12/16 07:18:30;;;;;;;28.40;18.50;;;;;;;0.28;79.78;100834.98;107065;1261;60084;-40
2023/12/16 07:20:58;;;;;;;30.20;18.90;;;;;;;0.31;79.60;100840.27;107004;1265;73028;-40
2023/12/16 07:23:28;;;;;;;26.40;17.80;;;;;;;0.37;79.56;100841.43;107057;1266;67916;-40
2023/12/16 07:25:55;;;;;;;26.50;18.80;;;;;;;0.39;79.60;100840.42;107056;1261;72738;-40
2023/12/16 07:28:23;;;;;;;29.20;19.30;;;;;;;0.37;79.71;100837.86;107042;1260;59604;-40
2023/12/16 07:30:50;;;;;;;36.20;19.90;;;;;;;0.36;79.79;100833.27;107055;1261;59528;-40
2023/12/16 07:33:18;;;;;;;27.80;18.00;;;;;;;0.38;79.89;100830.84;107032;1261;73168;-41
2023/12/16 07:35:46;;;;;;;28.10;18.50;;;;;;;0.47;79.94;100831.26;107036;1260;67903;-40
2023/12/16 07:38:13;;;;;;;28.10;18.90;;;;;;;0.48;79.96;100831.11;107026;1264;72720;-40
2023/12/16 07:40:41;;;;;;;32.20;20.30;;;;;;;0.47;80.14;100834.14;107019;1264;59470;-40
2023/12/16 07:43:09;;;;;;;30.10;18.30;;;;;;;0.46;80.48;100836.00;105541;1265;1003728;-40
2023/12/16 07:45:36;;;;;;;28.90;18.90;;;;;;;0.47;80.62;100835.80;107056;1260;73050;-40
2023/12/16 07:48:04;;;;;;;30.30;19.40;;;;;;;0.55;80.61;100838.46;106865;1266;67595;-39
2023/12/16 07:50:32;;;;;;;28.20;19.00;;;;;;;0.56;80.70;100839.97;106915;1261;71411;-40
2023/12/16 07:52:59;;;;;;;31.70;19.80;;;;;;;0.55;80.85;100841.71;106894;1260;59656;-41
2023/12/16 07:55:27;;;;;;;30.40;19.90;;;;;;;0.55;81.13;100842.35;106894;1261;59248;-40
2023/12/16 07:57:55;;;;;;;30.00;19.40;;;;;;;0.61;81.07;100843.78;106865;1260;72052;-41
2023/12/16 08:00:22;;;;;;;29.70;19.80;;;;;;;0.70;81.19;100839.58;106888;1260;67564;-41
2023/12/16 08:02:50;;;;;;;31.70;21.20;;;;;;;0.72;81.05;100841.20;106889;1266;70435;-41
2023/12/16 08:05:18;;;;;;;30.30;20.80;;;;;;;0.70;81.38;100838.98;106867;1264;59564;-40
2023/12/16 08:07:46;;;;;;;29.30;19.90;;;;;;;0.70;81.55;100842.78;106885;1260;60058;-40
2023/12/16 08:10:14;;;;;;;31.50;20.50;;;;;;;0.77;81.76;100842.02;107144;1257;73041;-41
2023/12/16 08:12:41;;;;;;;33.20;20.40;;;;;;;0.84;81.71;100841.67;107199;1257;66466;-40
2023/12/16 08:15:09;;;;;;;31.50;20.50;;;;;;;0.85;81.63;100841.00;107177;1257;72734;-41
2023/12/16 08:17:37;;;;;;;33.40;20.90;;;;;;;0.83;82.04;100834.95;107176;1258;59621;-40
2023/12/16 08:20:06;;;;;;;29.40;20.10;;;;;;;0.81;82.24;100834.30;107168;1257;59507;-41
2023/12/16 08:22:34;;;;;;;30.40;20.20;;;;;;;0.84;82.19;100833.04;107248;1257;73132;-41
2023/12/16 08:25:02;;;;;;;31.60;20.90;;;;;;;0.91;82.27;100828.36;107093;1257;67594;-41
2023/12/16 08:27:30;;;;;;;32.30;21.10;;;;;;;0.94;82.42;100826.35;107081;1257;72754;-39
2023/12/16 08:29:57;;;;;;;31.50;21.20;;;;;;;0.92;82.59;100819.14;107182;1260;60206;-40
2023/12/16 08:32:25;;;;;;;30.40;19.80;;;;;;;0.91;82.80;100813.37;107176;1257;59994;-40
2023/12/16 08:34:52;;;;;;;29.70;19.10;;;;;;;0.98;82.75;100818.25;107196;1257;73521;-41
2023/12/16 08:37:20;;;;;;;30.50;20.00;;;;;;;1.10;82.70;100821.67;107209;1257;67569;-41
2023/12/16 08:39:48;;;;;;;30.20;20.70;;;;;;;1.17;82.67;100815.61;107170;1260;71711;-41
2023/12/16 08:42:15;;;;;;;33.00;21.80;;;;;;;1.20;82.28;100815.73;107159;1256;60408;-40
2023/12/16 08:44:43;;;;;;;30.30;20.00;;;;;;;1.24;82.45;100822.52;107233;1257;60334;-41
2023/12/16 08:47:10;;;;;;;28.10;19.60;;;;;;;1.32;82.11;100821.17;107225;1261;73925;-41
2023/12/16 08:49:43;;;;;;;30.90;19.70;;;;;;;1.35;81.52;100814.17;107212;1262;67637;-41
2023/12/16 08:52:11;;;;;;;31.20;20.30;;;;;;;1.35;81.52;100808.83;107278;1262;70706;-41
2023/12/16 08:54:41;;;;;;;35.00;22.30;;;;;;;1.31;81.47;100806.48;107193;1260;60587;-41
2023/12/16 08:57:09;;;;;;;34.00;21.60;;;;;;;1.26;81.41;100803.26;107209;1257;60485;-41
2023/12/16 08:59:36;;;;;;;30.00;19.50;;;;;;;1.29;81.55;100806.41;107180;1257;72977;-39
2023/12/16 09:02:05;;;;;;;30.60;20.30;;;;;;;1.33;81.10;100807.44;107204;1257;67883;-40
2023/12/16 09:04:33;;;;;;;33.90;22.80;;;;;;;1.31;81.34;100813.04;106445;1263;1003205;-41
2023/12/16 09:07:00;;;;;;;32.20;21.80;;;;;;;1.28;81.52;100809.41;107195;1257;60446;-40
2023/12/16 09:09:28;;;;;;;32.70;21.10;;;;;;;1.27;81.57;100802.55;107192;1257;60466;-39
2023/12/16 09:11:55;;;;;;;32.40;21.50;;;;;;;1.30;81.47;100799.04;107143;1262;73865;-40
2023/12/16 09:14:23;;;;;;;32.60;21.00;;;;;;;1.35;81.36;100800.92;107216;1257;67659;-40
2023/12/16 09:16:50;;;;;;;30.20;20.90;;;;;;;1.34;81.59;100804.29;107184;1258;72727;-40
2023/12/16 09:19:18;;;;;;;33.20;21.70;;;;;;;1.30;81.52;100805.88;107188;1262;60095;-41
2023/12/16 09:21:48;;;;;;;29.00;20.10;;;;;;;1.29;81.85;100803.80;107214;1257;60535;-41
2023/12/16 09:24:17;;;;;;;30.30;19.30;;;;;;;1.35;81.56;100798.79;107238;1257;73790;-41
2023/12/16 09:26:45;;;;;;;30.90;20.90;;;;;;;1.42;81.47;100799.34;107258;1257;66299;-41
2023/12/16 09:29:12;;;;;;;29.80;19.70;;;;;;;1.43;81.51;100794.73;107167;1257;72749;-41
2023/12/16 09:31:41;;;;;;;34.80;21.70;;;;;;;1.41;81.57;100794.16;106410;1260;1003099;-40
2023/12/16 09:34:09;;;;;;;33.90;21.00;;;;;;;1.38;81.69;100790.56;107045;1260;59379;-40
2023/12/16 09:36:37;;;;;;;28.70;19.30;;;;;;;1.41;81.57;100789.34;107017;1260;73828;-40
2023/12/16 09:39:04;;;;;;;32.50;20.50;;;;;;;1.48;81.70;100784.13;107017;1261;67601;-40
2023/12/16 09:41:32;;;;;;;30.30;20.60;;;;;;;1.50;81.82;100785.73;107180;1260;72663;-40
2023/12/16 09:44:00;;;;;;;31.80;21.10;;;;;;;1.49;81.97;100785.46;107052;1260;60434;-40
2023/12/16 09:46:29;;;;;;;30.90;20.50;;;;;;;1.46;81.94;100785.19;107088;1260;60344;-40
2023/12/16 09:48:56;;;;;;;27.80;18.70;;;;;;;1.49;81.83;100784.02;107037;1263;73870;-40
2023/12/16 09:51:25;;;;;;;29.20;19.70;;;;;;;1.53;81.60;100786.64;107042;1259;67892;-40
2023/12/16 09:53:53;;;;;;;29.10;19.80;;;;;;;1.51;81.82;100785.41;107041;1260;70949;-40
2023/12/16 09:56:21;;;;;;;32.80;21.30;;;;;;;1.47;81.87;100784.13;107053;1260;60496;-40
2023/12/16 09:58:51;;;;;;;27.30;18.40;;;;;;;1.45;82.11;100780.81;107048;1258;60396;-39
2023/12/16 10:01:19;;;;;;;26.20;17.90;;;;;;;1.48;81.83;100774.02;107099;1259;73861;-40
2023/12/16 10:03:48;;;;;;;27.10;18.50;;;;;;;1.53;81.93;100774.24;107109;1263;67593;-40
2023/12/16 10:06:16;;;;;;;28.10;18.90;;;;;;;1.52;81.96;100770.98;107029;1260;72733;-41
2023/12/16 10:08:44;;;;;;;28.60;18.90;;;;;;;1.50;82.19;100771.95;107045;1260;60865;-40
2023/12/16 10:11:12;;;;;;;28.60;18.20;;;;;;;1.50;82.22;100768.69;107048;1260;59248;-40
2023/12/16 10:13:55;;;;;;;29.30;18.70;;;;;;;1.57;82.22;100761.09;107067;1260;73844;-40
2023/12/16 10:16:24;;;;;;;26.10;18.10;;;;;;;1.66;81.81;100752.23;106352;1260;1002484;-40
2023/12/16 10:18:53;;;;;;;29.70;19.00;;;;;;;1.68;81.94;100751.44;107063;1260;72959;-40
2023/12/16 10:21:25;;;;;;;27.30;17.60;;;;;;;1.67;81.87;100745.93;107053;1260;60564;-40
2023/12/16 10:23:57;;;;;;;27.20;18.50;;;;;;;1.65;81.88;100743.73;107084;1259;60514;-40
2023/12/16 10:26:25;;;;;;;25.00;17.10;;;;;;;1.68;81.66;100741.86;107082;1260;73766;-40
2023/12/16 10:28:53;;;;;;;25.90;17.50;;;;;;;1.74;81.68;100736.89;107027;1260;67368;-40
2023/12/16 10:31:22;;;;;;;26.80;18.40;;;;;;;1.74;81.68;100743.11;107035;1263;72679;-40
2023/12/16 10:33:49;;;;;;;27.80;17.90;;;;;;;1.70;81.90;100744.38;107244;1258;60553;-41
2023/12/16 10:36:17;;;;;;;26.60;16.90;;;;;;;1.65;82.15;100750.42;107153;1257;60427;-40
2023/12/16 10:38:45;;;;;;;27.50;17.30;;;;;;;1.66;82.16;100750.09;107212;1257;72412;-41
2023/12/16 10:41:12;;;;;;;26.10;17.60;;;;;;;1.72;82.12;100749.45;107007;1257;68490;-41
2023/12/16 10:43:40;;;;;;;27.60;18.10;;;;;;;1.72;82.16;100744.48;107203;1257;71367;-41
2023/12/16 10:46:08;;;;;;;27.50;17.60;;;;;;;1.69;82.27;100741.49;107035;1260;60454;-41
2023/12/16 10:48:36;;;;;;;28.40;17.70;;;;;;;1.67;82.32;100736.84;107024;1257;60540;-40
2023/12/16 10:51:05;;;;;;;23.60;16.70;;;;;;;1.72;82.47;100736.24;107142;1257;73838;-41
2023/12/16 10:53:44;;;;;;;19.70;13.80;;;;;;;1.83;82.24;100734.59;107217;1257;66768;-41
2023/12/16 10:56:29;;;;;;;24.70;17.00;;;;;;;1.83;81.88;100733.05;107175;1257;72666;-41
2023/12/16 10:59:12;;;;;;;25.60;17.30;;;;;;;1.81;81.72;100734.23;107188;1257;60450;-40
2023/12/16 11:01:45;;;;;;;22.80;16.10;;;;;;;1.80;81.73;100732.88;107199;1257;60083;-40
2023/12/16 11:04:14;;;;;;;26.00;17.00;;;;;;;1.85;81.57;100732.45;107221;1261;73999;-40
2023/12/16 11:06:56;;;;;;;23.50;17.10;;;;;;;1.89;81.47;100730.85;107218;1257;67573;-45
2023/12/16 11:09:23;;;;;;;24.90;17.10;;;;;;;1.88;81.55;100723.69;107201;1257;71359;-42
2023/12/16 11:11:51;;;;;;;24.60;16.40;;;;;;;1.85;81.32;100720.95;107068;1260;60964;-40
2023/12/16 11:14:19;;;;;;;22.60;15.90;;;;;;;1.89;81.46;100718.39;107060;1257;59137;-40